Time;durP1;ratioP1;P1;durP2;ratioP2;P2;SDS_P1;SDS_P2;PMS_P1;PMS_P2;Temp;Humidity;BMP_temperature;BMP_pressure;BME280_temperature;BME280_humidity;BME280_pressure;Samples;Min_cycle;Max_cycle;Signal;HPM_P1;HPM_P2
2022/03/03 00:01:41;;;;;;;;;74.00;57.75;;;;;;;;5071044;27;45318;-68
2022/03/03 00:04:07;;;;;;;;;73.75;57.00;;;;;;;;5070999;27;45589;-68
2022/03/03 00:06:32;;;;;;;;;76.25;58.00;;;;;;;;5070915;27;46755;-69
2022/03/03 00:08:58;;;;;;;;;80.50;60.75;;;;;;;;5070856;27;45862;-68
2022/03/03 00:11:23;;;;;;;;;72.75;57.50;;;;;;;;5072324;27;45403;-67
2022/03/03 00:13:48;;;;;;;;;75.25;59.25;;;;;;;;5071439;28;45530;-68
2022/03/03 00:16:13;;;;;;;;;72.75;58.50;;;;;;;;5070552;27;45944;-68
2022/03/03 00:18:39;;;;;;;;;73.00;59.75;;;;;;;;5069232;28;45379;-66
2022/03/03 00:21:04;;;;;;;;;79.75;61.00;;;;;;;;5069458;28;45568;-66
2022/03/03 00:23:30;;;;;;;;;74.25;58.50;;;;;;;;5071508;27;45418;-67
2022/03/03 00:25:55;;;;;;;;;72.25;57.50;;;;;;;;5071733;28;45624;-68
2022/03/03 00:28:20;;;;;;;;;75.25;57.50;;;;;;;;5069069;27;45575;-67
2022/03/03 00:30:45;;;;;;;;;77.00;58.25;;;;;;;;5070703;27;45519;-68
2022/03/03 00:33:11;;;;;;;;;74.25;58.50;;;;;;;;5070814;27;45840;-68
2022/03/03 00:35:36;;;;;;;;;71.50;56.00;;;;;;;;5069612;27;46326;-68
2022/03/03 00:38:01;;;;;;;;;74.00;59.25;;;;;;;;5072564;27;45505;-69
2022/03/03 00:40:26;;;;;;;;;74.50;58.00;;;;;;;;5070406;27;46060;-68
2022/03/03 00:42:52;;;;;;;;;80.75;60.75;;;;;;;;5068940;28;45593;-68
2022/03/03 00:45:17;;;;;;;;;74.50;57.50;;;;;;;;5070254;27;45529;-64
2022/03/03 00:47:42;;;;;;;;;74.75;58.50;;;;;;;;5068827;28;45553;-67
2022/03/03 00:50:08;;;;;;;;;71.75;59.25;;;;;;;;5072520;28;45538;-68
2022/03/03 00:52:33;;;;;;;;;75.25;60.75;;;;;;;;5068769;27;45606;-68
2022/03/03 00:54:58;;;;;;;;;76.00;61.75;;;;;;;;5069827;27;45332;-67
2022/03/03 00:57:23;;;;;;;;;77.75;60.50;;;;;;;;5070123;27;45728;-68
2022/03/03 00:59:48;;;;;;;;;74.50;59.75;;;;;;;;5070139;27;45481;-67
2022/03/03 01:02:14;;;;;;;;;75.00;60.75;;;;;;;;5070842;28;45619;-68
2022/03/03 01:04:39;;;;;;;;;75.75;61.00;;;;;;;;5069877;28;46329;-69
2022/03/03 01:07:05;;;;;;;;;76.50;62.25;;;;;;;;5068325;27;45388;-68
2022/03/03 01:09:30;;;;;;;;;71.25;56.50;;;;;;;;5070247;27;45915;-68
2022/03/03 01:11:55;;;;;;;;;74.50;57.75;;;;;;;;5070117;27;45562;-68
2022/03/03 01:14:23;;;;;;;;;77.75;61.00;;;;;;;;5072124;28;46537;-67
2022/03/03 01:16:49;;;;;;;;;75.75;59.50;;;;;;;;5071134;28;46843;-68
2022/03/03 01:19:14;;;;;;;;;75.50;58.50;;;;;;;;5070015;27;46130;-68
2022/03/03 01:21:39;;;;;;;;;80.00;61.25;;;;;;;;5068614;28;45547;-68
2022/03/03 01:24:05;;;;;;;;;79.75;63.25;;;;;;;;5069573;27;45701;-68
2022/03/03 01:26:30;;;;;;;;;74.00;59.00;;;;;;;;5070674;27;49354;-67
2022/03/03 01:28:55;;;;;;;;;80.75;63.75;;;;;;;;5071474;28;45432;-68
2022/03/03 01:31:20;;;;;;;;;75.75;60.75;;;;;;;;5068365;28;45488;-69
2022/03/03 01:33:45;;;;;;;;;78.25;60.25;;;;;;;;5069549;28;45361;-68
2022/03/03 01:36:11;;;;;;;;;80.75;63.50;;;;;;;;5069800;27;45509;-68
2022/03/03 01:38:36;;;;;;;;;81.00;61.50;;;;;;;;5069993;27;47915;-67
2022/03/03 01:41:01;;;;;;;;;74.25;60.00;;;;;;;;5070564;28;45701;-68
2022/03/03 01:43:26;;;;;;;;;78.75;64.50;;;;;;;;5069377;27;46267;-68
2022/03/03 01:45:52;;;;;;;;;71.25;56.75;;;;;;;;5068023;27;45414;-67
2022/03/03 01:48:17;;;;;;;;;80.50;65.00;;;;;;;;5069280;27;45634;-68
2022/03/03 01:50:42;;;;;;;;;74.00;59.25;;;;;;;;5069764;27;45616;-68
2022/03/03 01:53:07;;;;;;;;;75.50;60.25;;;;;;;;5071680;28;46400;-68
2022/03/03 01:55:32;;;;;;;;;79.75;63.25;;;;;;;;5069238;27;45622;-68
2022/03/03 01:57:59;;;;;;;;;81.00;63.25;;;;;;;;5068214;28;45527;-67
2022/03/03 02:00:24;;;;;;;;;74.25;59.50;;;;;;;;5067944;28;45650;-67
2022/03/03 02:02:49;;;;;;;;;76.00;60.00;;;;;;;;5069256;28;46345;-68
2022/03/03 02:05:14;;;;;;;;;75.75;59.50;;;;;;;;5071372;27;45495;-68
2022/03/03 02:07:40;;;;;;;;;80.50;68.00;;;;;;;;5067802;28;45638;-68
2022/03/03 02:10:06;;;;;;;;;79.75;60.00;;;;;;;;5069222;27;45523;-68
2022/03/03 02:12:31;;;;;;;;;77.50;60.50;;;;;;;;5068788;27;45574;-66
2022/03/03 02:14:56;;;;;;;;;78.00;61.75;;;;;;;;5069072;28;45596;-67
2022/03/03 02:17:21;;;;;;;;;80.25;64.00;;;;;;;;5071041;27;45542;-67
2022/03/03 02:19:47;;;;;;;;;76.25;59.00;;;;;;;;5069395;28;45543;-68
2022/03/03 02:22:12;;;;;;;;;77.25;64.25;;;;;;;;5067149;28;47420;-67
2022/03/03 02:24:38;;;;;;;;;76.75;60.50;;;;;;;;5067218;28;45601;-66
2022/03/03 02:27:04;;;;;;;;;78.50;63.25;;;;;;;;5067575;28;45441;-67
2022/03/03 02:29:29;;;;;;;;;77.75;61.00;;;;;;;;5069906;27;45388;-67
2022/03/03 02:31:55;;;;;;;;;76.75;58.75;;;;;;;;5068330;28;48259;-68
2022/03/03 02:34:20;;;;;;;;;76.25;58.50;;;;;;;;5067260;28;45531;-68
2022/03/03 02:36:45;;;;;;;;;67.50;52.00;;;;;;;;5068689;28;45504;-68
2022/03/03 02:39:11;;;;;;;;;77.50;61.50;;;;;;;;5068572;27;45647;-68
2022/03/03 02:41:37;;;;;;;;;76.75;60.50;;;;;;;;5068731;27;45571;-67
2022/03/03 02:44:03;;;;;;;;;75.00;60.00;;;;;;;;5070741;27;45569;-68
2022/03/03 02:46:28;;;;;;;;;71.25;58.25;;;;;;;;5067247;27;45486;-68
2022/03/03 02:48:53;;;;;;;;;75.50;59.75;;;;;;;;5067205;28;45555;-68
2022/03/03 02:51:19;;;;;;;;;79.50;64.75;;;;;;;;5068507;27;45442;-68
2022/03/03 02:53:44;;;;;;;;;75.00;58.75;;;;;;;;5068530;28;45394;-68
2022/03/03 02:56:09;;;;;;;;;70.25;56.25;;;;;;;;5070616;28;46013;-68
2022/03/03 02:58:35;;;;;;;;;77.75;58.25;;;;;;;;5069137;27;45498;-67
2022/03/03 03:01:01;;;;;;;;;74.75;59.00;;;;;;;;5071732;27;45410;-67
2022/03/03 03:03:26;;;;;;;;;75.00;58.00;;;;;;;;5069046;27;45497;-68
2022/03/03 03:05:51;;;;;;;;;74.25;58.25;;;;;;;;5070611;28;45618;-68
2022/03/03 03:08:17;;;;;;;;;72.75;56.75;;;;;;;;5070219;28;45439;-69
2022/03/03 03:10:42;;;;;;;;;74.50;58.25;;;;;;;;5072409;27;45939;-69
2022/03/03 03:13:08;;;;;;;;;76.00;59.25;;;;;;;;5071706;27;45678;-69
2022/03/03 03:15:34;;;;;;;;;77.75;61.00;;;;;;;;5071771;27;45468;-68
2022/03/03 03:18:13;;;;;;;;;74.75;58.25;;;;;;;;5071975;28;45424;-69
2022/03/03 03:20:39;;;;;;;;;75.00;59.25;;;;;;;;5071703;27;46477;-68
2022/03/03 03:23:04;;;;;;;;;78.50;61.50;;;;;;;;5073721;27;45428;-68
2022/03/03 03:25:29;;;;;;;;;75.00;58.50;;;;;;;;5071025;28;45566;-68
2022/03/03 03:27:54;;;;;;;;;72.25;57.25;;;;;;;;5071230;27;45485;-69
2022/03/03 03:30:19;;;;;;;;;75.50;60.25;;;;;;;;5071343;27;45732;-69
2022/03/03 03:32:45;;;;;;;;;71.00;56.75;;;;;;;;5071423;27;45461;-69
2022/03/03 03:35:10;;;;;;;;;68.00;54.75;;;;;;;;5073479;27;45491;-69
2022/03/03 03:37:38;;;;;;;;;75.50;60.25;;;;;;;;5071051;27;45481;-69
2022/03/03 03:40:05;;;;;;;;;69.25;54.50;;;;;;;;5070905;27;45707;-68
2022/03/03 03:42:30;;;;;;;;;66.50;54.25;;;;;;;;5069571;27;45380;-67
2022/03/03 03:44:55;;;;;;;;;74.50;58.00;;;;;;;;5071232;27;45679;-67
2022/03/03 03:47:20;;;;;;;;;71.00;56.25;;;;;;;;5073343;27;45388;-69
2022/03/03 03:49:45;;;;;;;;;74.00;58.50;;;;;;;;5070778;27;45630;-67
2022/03/03 03:52:11;;;;;;;;;73.25;60.00;;;;;;;;5069642;28;46220;-65
2022/03/03 03:54:36;;;;;;;;;75.25;60.25;;;;;;;;5071264;27;45526;-67
2022/03/03 03:57:01;;;;;;;;;74.75;58.00;;;;;;;;5069825;28;45960;-67
2022/03/03 03:59:26;;;;;;;;;73.50;58.50;;;;;;;;5072457;27;46861;-70
2022/03/03 04:01:52;;;;;;;;;70.75;56.75;;;;;;;;5070258;28;45639;-66
2022/03/03 04:04:17;;;;;;;;;70.67;58.00;;;;;;;;5070800;27;45424;-66
2022/03/03 04:06:42;;;;;;;;;70.00;53.75;;;;;;;;5071091;27;45424;-67
2022/03/03 04:09:07;;;;;;;;;73.75;56.50;;;;;;;;5070795;28;46278;-67
2022/03/03 04:11:33;;;;;;;;;72.50;57.00;;;;;;;;5071550;28;45613;-68
2022/03/03 04:13:58;;;;;;;;;75.25;59.50;;;;;;;;5072630;28;45434;-68
2022/03/03 04:16:24;;;;;;;;;72.50;59.00;;;;;;;;5069269;27;45822;-67
2022/03/03 04:18:49;;;;;;;;;67.25;54.75;;;;;;;;5070710;27;47250;-68
2022/03/03 04:21:14;;;;;;;;;75.50;58.25;;;;;;;;5069502;28;45394;-68
2022/03/03 04:23:39;;;;;;;;;71.50;57.25;;;;;;;;5070820;27;45862;-68
2022/03/03 04:26:05;;;;;;;;;70.50;57.75;;;;;;;;5072639;28;45446;-67
2022/03/03 04:28:30;;;;;;;;;70.75;56.25;;;;;;;;5070382;27;45472;-68
2022/03/03 04:30:55;;;;;;;;;69.25;55.00;;;;;;;;5070431;27;45464;-67
2022/03/03 04:33:20;;;;;;;;;62.75;51.50;;;;;;;;5069482;28;45725;-68
2022/03/03 04:35:46;;;;;;;;;73.75;57.00;;;;;;;;5071028;27;45942;-68
2022/03/03 04:38:11;;;;;;;;;70.00;55.00;;;;;;;;5072476;27;46677;-68
2022/03/03 04:40:36;;;;;;;;;71.50;56.00;;;;;;;;5070575;27;45734;-68
2022/03/03 04:43:01;;;;;;;;;70.50;56.25;;;;;;;;5070425;27;45519;-68
2022/03/03 04:45:27;;;;;;;;;70.00;56.50;;;;;;;;5070276;27;45542;-67
2022/03/03 04:47:52;;;;;;;;;74.75;59.00;;;;;;;;5070334;27;45447;-67
2022/03/03 04:50:17;;;;;;;;;70.75;54.50;;;;;;;;5067686;28;45606;-69
2022/03/03 04:52:42;;;;;;;;;68.25;53.75;;;;;;;;5070373;27;46278;-68
2022/03/03 04:55:08;;;;;;;;;71.75;58.00;;;;;;;;5070063;27;45669;-67
2022/03/03 04:57:33;;;;;;;;;70.50;55.50;;;;;;;;5069729;27;47554;-69
2022/03/03 04:59:59;;;;;;;;;71.00;56.00;;;;;;;;5068679;27;45450;-69
2022/03/03 05:02:24;;;;;;;;;71.00;58.00;;;;;;;;5070397;28;45685;-69
2022/03/03 05:04:49;;;;;;;;;67.25;53.75;;;;;;;;5068910;27;45405;-67
2022/03/03 05:07:15;;;;;;;;;69.50;53.75;;;;;;;;5069583;27;45877;-66
2022/03/03 05:09:40;;;;;;;;;73.75;59.00;;;;;;;;5069645;27;45521;-67
2022/03/03 05:12:05;;;;;;;;;73.00;58.50;;;;;;;;5069937;28;45846;-68
2022/03/03 05:14:30;;;;;;;;;71.50;57.00;;;;;;;;5070645;27;45492;-68
2022/03/03 05:16:56;;;;;;;;;69.50;56.50;;;;;;;;5070779;27;45705;-70
2022/03/03 05:19:21;;;;;;;;;70.00;56.00;;;;;;;;5069493;27;45506;-68
2022/03/03 05:21:47;;;;;;;;;69.50;55.75;;;;;;;;5067625;28;45508;-67
2022/03/03 05:24:12;;;;;;;;;71.75;58.25;;;;;;;;5069515;27;45419;-68
2022/03/03 05:26:37;;;;;;;;;68.50;54.00;;;;;;;;5069438;27;45698;-68
2022/03/03 05:29:02;;;;;;;;;76.25;59.25;;;;;;;;5071653;27;45646;-69
2022/03/03 05:31:27;;;;;;;;;72.75;57.25;;;;;;;;5069500;27;45536;-68
2022/03/03 05:33:52;;;;;;;;;69.00;54.25;;;;;;;;5069671;27;45636;-68
2022/03/03 05:36:18;;;;;;;;;71.25;57.00;;;;;;;;5069708;27;45538;-68
2022/03/03 05:38:43;;;;;;;;;64.50;53.00;;;;;;;;5069523;27;45716;-69
2022/03/03 05:41:09;;;;;;;;;70.50;56.50;;;;;;;;5069202;28;45637;-68
2022/03/03 05:43:37;;;;;;;;;73.75;58.00;;;;;;;;5069372;27;45385;-68
2022/03/03 05:46:02;;;;;;;;;70.75;55.50;;;;;;;;5069206;27;46627;-67
2022/03/03 05:48:28;;;;;;;;;72.00;58.00;;;;;;;;5069446;27;46045;-68
2022/03/03 05:50:54;;;;;;;;;66.50;54.00;;;;;;;;5073173;27;45556;-68
2022/03/03 05:53:19;;;;;;;;;69.75;55.75;;;;;;;;5079969;28;45484;-68
2022/03/03 05:55:49;;;;;;;;;74.50;59.25;;;;;;;;5073394;27;45309;-68
2022/03/03 05:58:15;;;;;;;;;68.00;52.00;;;;;;;;5069398;27;45925;-67
2022/03/03 06:00:43;;;;;;;;;68.25;53.25;;;;;;;;5069472;27;45552;-67
2022/03/03 06:03:11;;;;;;;;;71.75;56.25;;;;;;;;5067851;27;45465;-67
2022/03/03 06:05:36;;;;;;;;;75.75;58.00;;;;;;;;5069172;27;46262;-67
2022/03/03 06:08:03;;;;;;;;;71.00;56.00;;;;;;;;5067498;28;45475;-67
2022/03/03 06:10:31;;;;;;;;;69.00;55.50;;;;;;;;5067804;28;45605;-68
2022/03/03 06:13:05;;;;;;;;;70.75;55.75;;;;;;;;5067626;28;45506;-67
2022/03/03 06:15:31;;;;;;;;;70.75;55.50;;;;;;;;5068907;28;45985;-67
2022/03/03 06:17:57;;;;;;;;;70.50;56.00;;;;;;;;5067760;27;45867;-63
2022/03/03 06:20:23;;;;;;;;;70.25;56.00;;;;;;;;5070854;27;45486;-68
2022/03/03 06:22:48;;;;;;;;;70.50;57.25;;;;;;;;5069525;28;45546;-69
2022/03/03 06:25:14;;;;;;;;;64.00;53.25;;;;;;;;5068501;28;45349;-67
2022/03/03 06:27:39;;;;;;;;;73.00;56.00;;;;;;;;5068431;28;45546;-67
2022/03/03 06:30:05;;;;;;;;;75.50;60.25;;;;;;;;5069156;27;45503;-67
2022/03/03 06:32:30;;;;;;;;;69.50;55.00;;;;;;;;5068507;28;45754;-68
2022/03/03 06:34:55;;;;;;;;;73.75;58.00;;;;;;;;5072513;27;45520;-69
2022/03/03 06:37:20;;;;;;;;;70.75;57.75;;;;;;;;5070875;28;45528;-67
2022/03/03 06:39:46;;;;;;;;;74.25;58.25;;;;;;;;5072225;27;45862;-68
2022/03/03 06:42:11;;;;;;;;;70.50;56.75;;;;;;;;5072596;27;45692;-68
2022/03/03 06:44:36;;;;;;;;;77.50;60.00;;;;;;;;5072381;28;45622;-69
2022/03/03 06:47:02;;;;;;;;;71.25;56.75;;;;;;;;5074064;28;45892;-68
2022/03/03 06:49:27;;;;;;;;;68.25;55.25;;;;;;;;5072009;27;45784;-69
2022/03/03 06:51:55;;;;;;;;;73.00;58.25;;;;;;;;5070439;28;45406;-68
2022/03/03 06:54:21;;;;;;;;;73.50;58.50;;;;;;;;5071848;27;46393;-68
2022/03/03 06:56:47;;;;;;;;;68.50;55.25;;;;;;;;5072349;27;45483;-69
2022/03/03 06:59:14;;;;;;;;;65.25;53.25;;;;;;;;5073451;28;45835;-68
2022/03/03 07:01:40;;;;;;;;;73.00;56.50;;;;;;;;5067936;27;46351;-68
2022/03/03 07:04:07;;;;;;;;;66.75;55.00;;;;;;;;5068721;28;48588;-66
2022/03/03 07:06:33;;;;;;;;;71.50;56.50;;;;;;;;5070301;27;45586;-66
2022/03/03 07:08:58;;;;;;;;;70.75;55.50;;;;;;;;5070537;28;45591;-69
2022/03/03 07:11:24;;;;;;;;;77.00;59.25;;;;;;;;5072150;28;46025;-69
2022/03/03 07:13:49;;;;;;;;;68.25;56.00;;;;;;;;5071975;27;45959;-69
2022/03/03 07:16:33;;;;;;;;;73.00;56.50;;;;;;;;5068509;27;45653;-70
2022/03/03 07:19:00;;;;;;;;;62.00;49.50;;;;;;;;5069882;28;45595;-67
2022/03/03 07:21:31;;;;;;;;;48.25;41.75;;;;;;;;5071972;27;45474;-68
2022/03/03 07:24:04;;;;;;;;;54.00;44.25;;;;;;;;5068889;27;46299;-69
2022/03/03 07:26:30;;;;;;;;;55.00;44.50;;;;;;;;5070802;28;45517;-69
2022/03/03 07:28:59;;;;;;;;;54.00;45.00;;;;;;;;5072546;28;45923;-70
2022/03/03 07:31:25;;;;;;;;;53.00;42.50;;;;;;;;5069372;28;45470;-69
2022/03/03 07:33:53;;;;;;;;;46.00;39.00;;;;;;;;5068535;27;46386;-69
2022/03/03 07:36:23;;;;;;;;;49.00;42.00;;;;;;;;5071281;27;45377;-69
2022/03/03 07:38:59;;;;;;;;;54.50;44.50;;;;;;;;5070320;27;45476;-68
2022/03/03 07:41:25;;;;;;;;;50.75;39.50;;;;;;;;5069389;27;45517;-69
2022/03/03 07:43:52;;;;;;;;;49.75;42.75;;;;;;;;5068430;28;47347;-69
2022/03/03 07:46:17;;;;;;;;;52.50;42.50;;;;;;;;5068407;28;45405;-70
2022/03/03 07:48:43;;;;;;;;;53.25;43.00;;;;;;;;5068692;28;45568;-68
2022/03/03 07:51:10;;;;;;;;;50.75;39.75;;;;;;;;5069081;27;45851;-69
2022/03/03 07:53:35;;;;;;;;;49.25;41.25;;;;;;;;5070137;28;48459;-67
2022/03/03 07:56:04;;;;;;;;;53.75;44.50;;;;;;;;5073229;28;45385;-67
2022/03/03 07:58:31;;;;;;;;;56.25;45.50;;;;;;;;5071314;27;45590;-68
2022/03/03 08:00:58;;;;;;;;;55.75;45.75;;;;;;;;5070995;27;45490;-68
2022/03/03 08:03:24;;;;;;;;;50.25;42.50;;;;;;;;5071676;27;45747;-68
2022/03/03 08:05:53;;;;;;;;;54.25;45.50;;;;;;;;5070828;27;45470;-68
2022/03/03 08:08:22;;;;;;;;;48.50;41.50;;;;;;;;5068545;28;45413;-68
2022/03/03 08:10:48;;;;;;;;;50.75;41.75;;;;;;;;5069308;27;45455;-69
2022/03/03 08:13:17;;;;;;;;;49.75;40.75;;;;;;;;5066766;28;47386;-69
2022/03/03 08:15:43;;;;;;;;;51.00;43.25;;;;;;;;5068126;27;45777;-69
2022/03/03 08:18:10;;;;;;;;;56.75;44.75;;;;;;;;5055580;28;45540;-67
2022/03/03 08:20:38;;;;;;;;;52.00;42.00;;;;;;;;5071577;27;45646;-66
2022/03/03 08:23:03;;;;;;;;;51.00;40.75;;;;;;;;5070810;28;46187;-67
2022/03/03 08:25:29;;;;;;;;;50.75;41.25;;;;;;;;5067616;28;46002;-67
2022/03/03 08:27:54;;;;;;;;;53.25;42.75;;;;;;;;5070771;27;45551;-68
2022/03/03 08:30:20;;;;;;;;;43.25;36.50;;;;;;;;5067132;27;45553;-68
2022/03/03 08:32:50;;;;;;;;;52.75;45.00;;;;;;;;5070569;28;46507;-65
2022/03/03 08:35:18;;;;;;;;;53.25;42.75;;;;;;;;5072490;27;45622;-68
2022/03/03 08:37:44;;;;;;;;;51.75;42.00;;;;;;;;5068949;28;45612;-68
2022/03/03 08:40:12;;;;;;;;;51.00;42.25;;;;;;;;5069042;28;45833;-67
2022/03/03 08:42:39;;;;;;;;;53.25;43.50;;;;;;;;5067589;28;47428;-68
2022/03/03 08:45:05;;;;;;;;;51.00;40.00;;;;;;;;5070228;27;46221;-68
2022/03/03 08:47:31;;;;;;;;;53.75;45.25;;;;;;;;5071608;27;45508;-68
2022/03/03 08:50:01;;;;;;;;;50.25;42.00;;;;;;;;5070411;27;45484;-68
2022/03/03 08:52:27;;;;;;;;;54.25;45.50;;;;;;;;5071235;27;46002;-67
2022/03/03 08:54:53;;;;;;;;;53.00;42.25;;;;;;;;5067129;28;48808;-68
2022/03/03 08:57:18;;;;;;;;;50.25;42.00;;;;;;;;5068326;28;45607;-68
2022/03/03 08:59:43;;;;;;;;;44.75;37.50;;;;;;;;5070293;27;45547;-67
2022/03/03 09:02:11;;;;;;;;;57.00;45.50;;;;;;;;5072272;27;46259;-68
2022/03/03 09:04:36;;;;;;;;;52.50;42.25;;;;;;;;5069992;28;45664;-67
2022/03/03 09:07:01;;;;;;;;;50.50;42.75;;;;;;;;5070015;27;45463;-67
2022/03/03 09:09:26;;;;;;;;;54.50;45.00;;;;;;;;5069886;28;45444;-69
2022/03/03 09:11:52;;;;;;;;;53.75;43.50;;;;;;;;5067143;27;47881;-68
2022/03/03 09:14:17;;;;;;;;;56.75;46.00;;;;;;;;5071724;28;45468;-68
2022/03/03 09:16:42;;;;;;;;;55.00;44.25;;;;;;;;5070013;27;45579;-69
2022/03/03 09:19:07;;;;;;;;;55.50;46.00;;;;;;;;5068217;28;45594;-68
2022/03/03 09:21:33;;;;;;;;;56.00;44.00;;;;;;;;5068361;27;45752;-67
2022/03/03 09:23:58;;;;;;;;;55.75;43.25;;;;;;;;5069706;27;45456;-67
2022/03/03 09:26:23;;;;;;;;;56.00;44.75;;;;;;;;5070077;28;45387;-66
2022/03/03 09:28:48;;;;;;;;;58.00;46.75;;;;;;;;5068838;28;45435;-67
2022/03/03 09:31:14;;;;;;;;;55.50;44.75;;;;;;;;5069443;27;45429;-69
2022/03/03 09:33:39;;;;;;;;;59.00;46.00;;;;;;;;5068285;27;45602;-69
2022/03/03 09:36:05;;;;;;;;;58.50;46.00;;;;;;;;5069947;28;45392;-68
2022/03/03 09:38:30;;;;;;;;;47.00;37.50;;;;;;;;5069362;28;45670;-65
2022/03/03 09:40:55;;;;;;;;;54.75;43.00;;;;;;;;5070504;28;46244;-66
2022/03/03 09:43:21;;;;;;;;;52.25;40.75;;;;;;;;5069424;27;45380;-67
2022/03/03 09:45:46;;;;;;;;;57.75;47.25;;;;;;;;5069531;28;46454;-67
2022/03/03 09:48:11;;;;;;;;;55.50;45.75;;;;;;;;5069676;27;45453;-67
2022/03/03 09:50:38;;;;;;;;;57.75;45.25;;;;;;;;5069504;28;46617;-67
2022/03/03 09:53:11;;;;;;;;;54.00;43.75;;;;;;;;5073801;28;45528;-67
2022/03/03 09:55:36;;;;;;;;;56.00;44.25;;;;;;;;5075393;27;45552;-67
2022/03/03 09:58:02;;;;;;;;;58.25;47.50;;;;;;;;5071189;27;45590;-67
2022/03/03 10:00:33;;;;;;;;;57.00;45.50;;;;;;;;5067650;28;48610;-67
2022/03/03 10:03:10;;;;;;;;;52.25;44.75;;;;;;;;5069089;27;45492;-68
2022/03/03 10:05:36;;;;;;;;;57.50;45.25;;;;;;;;5068019;28;45544;-68
2022/03/03 10:08:03;;;;;;;;;56.75;46.00;;;;;;;;5070470;28;45575;-68
2022/03/03 10:10:29;;;;;;;;;56.75;44.50;;;;;;;;5067178;28;48438;-68
2022/03/03 10:12:56;;;;;;;;;53.25;43.50;;;;;;;;5065765;28;46056;-68
2022/03/03 10:15:24;;;;;;;;;54.50;42.00;;;;;;;;5069207;27;47785;-68
2022/03/03 10:17:54;;;;;;;;;56.00;43.75;;;;;;;;5068984;27;45517;-68
2022/03/03 10:20:19;;;;;;;;;44.00;38.00;;;;;;;;5066614;28;45692;-67
2022/03/03 10:22:57;;;;;;;;;53.50;42.00;;;;;;;;5068950;28;45815;-67
2022/03/03 10:25:33;;;;;;;;;54.50;43.00;;;;;;;;5068412;27;45581;-67
2022/03/03 10:28:14;;;;;;;;;49.50;42.00;;;;;;;;5067572;28;45597;-69
2022/03/03 10:31:06;;;;;;;;;56.25;44.75;;;;;;;;5068878;27;45863;-68
2022/03/03 10:33:33;;;;;;;;;54.00;44.25;;;;;;;;5066695;27;45852;-69
2022/03/03 10:35:59;;;;;;;;;52.00;43.00;;;;;;;;5068846;27;45940;-66
2022/03/03 10:38:24;;;;;;;;;52.50;42.75;;;;;;;;5070676;27;45452;-68
2022/03/03 10:40:49;;;;;;;;;48.00;40.25;;;;;;;;5066120;28;46435;-67
2022/03/03 10:43:15;;;;;;;;;48.00;40.50;;;;;;;;5069098;28;45937;-68
2022/03/03 10:45:53;;;;;;;;;51.50;42.25;;;;;;;;5068499;28;45353;-67
2022/03/03 10:48:22;;;;;;;;;49.00;39.00;;;;;;;;5068275;27;45516;-67
2022/03/03 10:50:48;;;;;;;;;49.75;41.25;;;;;;;;5067996;27;45760;-68
2022/03/03 10:53:21;;;;;;;;;50.75;43.25;;;;;;;;5069755;28;45477;-68
2022/03/03 10:55:58;;;;;;;;;53.75;42.25;;;;;;;;5068206;27;45491;-67
2022/03/03 10:58:42;;;;;;;;;48.75;39.50;;;;;;;;5068048;27;45400;-67
2022/03/03 11:01:08;;;;;;;;;51.00;42.75;;;;;;;;5068043;27;46488;-68
2022/03/03 11:03:33;;;;;;;;;49.75;41.25;;;;;;;;5068066;28;45672;-69
2022/03/03 11:05:59;;;;;;;;;55.75;43.00;;;;;;;;5068178;27;45666;-67
2022/03/03 11:08:25;;;;;;;;;51.00;41.75;;;;;;;;5070046;28;45525;-66
2022/03/03 11:10:50;;;;;;;;;48.25;40.75;;;;;;;;5063785;28;48517;-68
2022/03/03 11:13:16;;;;;;;;;50.75;42.00;;;;;;;;5061824;28;45392;-68
2022/03/03 11:15:43;;;;;;;;;49.50;41.00;;;;;;;;5066637;28;45440;-67
2022/03/03 11:18:08;;;;;;;;;51.25;41.00;;;;;;;;5068165;27;45433;-66
2022/03/03 11:20:33;;;;;;;;;50.50;41.50;;;;;;;;5070711;27;46398;-68
2022/03/03 11:22:59;;;;;;;;;51.00;42.50;;;;;;;;5072802;27;45382;-69
2022/03/03 11:25:31;;;;;;;;;45.00;39.00;;;;;;;;5071121;27;45604;-68
2022/03/03 11:28:03;;;;;;;;;47.75;40.00;;;;;;;;5071448;27;45594;-68
2022/03/03 11:30:29;;;;;;;;;52.25;42.25;;;;;;;;5069622;28;46801;-67
2022/03/03 11:33:24;;;;;;;;;48.25;38.75;;;;;;;;5071441;27;45428;-68
2022/03/03 11:35:57;;;;;;;;;44.00;39.00;;;;;;;;5070297;28;45590;-67
2022/03/03 11:38:24;;;;;;;;;52.50;43.25;;;;;;;;5069474;28;45456;-67
2022/03/03 11:41:00;;;;;;;;;49.25;40.25;;;;;;;;5069869;27;45734;-68
2022/03/03 11:43:26;;;;;;;;;54.25;43.00;;;;;;;;5070851;27;45859;-67
2022/03/03 11:45:52;;;;;;;;;48.50;40.00;;;;;;;;5070811;27;45581;-67
2022/03/03 11:48:22;;;;;;;;;45.50;39.00;;;;;;;;5069574;27;45554;-67
2022/03/03 11:50:48;;;;;;;;;51.00;41.00;;;;;;;;5069574;28;48150;-67
2022/03/03 11:53:15;;;;;;;;;47.00;40.00;;;;;;;;5071634;28;45504;-66
2022/03/03 11:55:50;;;;;;;;;46.50;36.25;;;;;;;;5067728;28;45583;-67
2022/03/03 11:58:17;;;;;;;;;49.50;37.25;;;;;;;;5070710;27;45426;-67
2022/03/03 12:00:42;;;;;;;;;51.00;39.50;;;;;;;;5070589;27;45881;-67
2022/03/03 12:03:09;;;;;;;;;44.25;38.25;;;;;;;;5070823;27;45763;-68
2022/03/03 12:05:35;;;;;;;;;38.75;35.25;;;;;;;;5071580;27;45527;-68
2022/03/03 12:08:03;;;;;;;;;46.00;36.75;;;;;;;;5072128;28;45447;-67
2022/03/03 12:10:28;;;;;;;;;35.00;30.25;;;;;;;;5069024;27;46445;-68
2022/03/03 12:13:14;;;;;;;;;44.00;36.50;;;;;;;;5070698;27;45441;-67
2022/03/03 12:15:40;;;;;;;;;36.25;31.25;;;;;;;;5062973;28;45871;-68
2022/03/03 12:18:05;;;;;;;;;40.00;33.75;;;;;;;;5070791;27;45589;-67
2022/03/03 12:20:35;;;;;;;;;42.75;35.75;;;;;;;;5070694;28;48670;-68
2022/03/03 12:23:07;;;;;;;;;38.00;33.25;;;;;;;;5072215;27;45435;-68
2022/03/03 12:25:51;;;;;;;;;39.00;34.25;;;;;;;;5068826;28;45618;-68
2022/03/03 12:28:17;;;;;;;;;41.75;34.00;;;;;;;;5070378;27;45587;-67
2022/03/03 12:30:44;;;;;;;;;39.50;34.50;;;;;;;;5068288;28;48388;-67
2022/03/03 12:33:18;;;;;;;;;39.25;34.25;;;;;;;;5067492;27;45570;-67
2022/03/03 12:35:44;;;;;;;;;43.25;37.25;;;;;;;;5069136;28;45721;-67
2022/03/03 12:38:11;;;;;;;;;35.25;33.00;;;;;;;;5072408;27;45533;-67
2022/03/03 12:40:36;;;;;;;;;46.50;38.75;;;;;;;;5069806;27;46673;-68
2022/03/03 12:43:02;;;;;;;;;42.50;36.00;;;;;;;;5070234;27;45410;-68
2022/03/03 12:45:30;;;;;;;;;44.25;37.75;;;;;;;;5070236;27;46200;-68
2022/03/03 12:47:55;;;;;;;;;45.25;36.75;;;;;;;;5067340;28;45704;-67
2022/03/03 12:50:26;;;;;;;;;40.75;34.25;;;;;;;;5072332;27;45882;-69
2022/03/03 12:53:05;;;;;;;;;46.50;37.50;;;;;;;;5069129;27;45492;-68
2022/03/03 12:55:35;;;;;;;;;46.50;39.50;;;;;;;;5069720;27;45523;-67
2022/03/03 12:58:01;;;;;;;;;48.00;37.75;;;;;;;;5069934;27;45466;-66
2022/03/03 13:00:27;;;;;;;;;40.50;35.50;;;;;;;;5069920;27;45980;-68
2022/03/03 13:02:52;;;;;;;;;45.25;36.50;;;;;;;;5053890;28;45513;-68
2022/03/03 13:05:30;;;;;;;;;32.50;30.50;;;;;;;;5071972;27;45388;-68
2022/03/03 13:07:56;;;;;;;;;31.75;30.75;;;;;;;;5070322;28;45546;-67
2022/03/03 13:10:21;;;;;;;;;31.00;29.50;;;;;;;;5069445;28;45696;-67
2022/03/03 13:12:46;;;;;;;;;39.00;34.25;;;;;;;;5069863;28;45516;-67
2022/03/03 13:15:12;;;;;;;;;41.75;35.25;;;;;;;;5070216;28;45606;-67
2022/03/03 13:17:54;;;;;;;;;43.25;34.25;;;;;;;;5070671;27;45471;-68
2022/03/03 13:20:20;;;;;;;;;39.50;34.00;;;;;;;;5071613;28;46170;-67
2022/03/03 13:22:46;;;;;;;;;36.50;32.25;;;;;;;;5069610;28;45511;-68
2022/03/03 13:25:15;;;;;;;;;35.50;32.00;;;;;;;;5068087;28;45539;-68
2022/03/03 13:27:48;;;;;;;;;35.00;30.00;;;;;;;;5066746;28;45699;-68
2022/03/03 13:30:13;;;;;;;;;34.25;32.00;;;;;;;;5069425;27;46014;-68
2022/03/03 13:32:43;;;;;;;;;35.50;33.00;;;;;;;;5069652;27;45534;-68
2022/03/03 13:35:08;;;;;;;;;40.75;33.25;;;;;;;;5070287;28;45901;-68
2022/03/03 13:37:33;;;;;;;;;30.00;27.25;;;;;;;;5069484;27;45511;-68
2022/03/03 13:40:10;;;;;;;;;41.00;35.75;;;;;;;;5069450;27;46187;-67
2022/03/03 13:42:37;;;;;;;;;33.00;30.25;;;;;;;;5069034;27;45446;-66
2022/03/03 13:45:03;;;;;;;;;31.50;31.25;;;;;;;;5069596;27;46057;-67
2022/03/03 13:47:29;;;;;;;;;41.00;33.00;;;;;;;;5069895;28;45545;-67
2022/03/03 13:49:55;;;;;;;;;29.50;27.75;;;;;;;;5070154;27;46318;-67
2022/03/03 13:52:32;;;;;;;;;32.25;31.25;;;;;;;;5069148;27;45425;-67
2022/03/03 13:54:59;;;;;;;;;36.25;30.50;;;;;;;;5068297;28;45473;-70
2022/03/03 13:57:43;;;;;;;;;36.25;30.75;;;;;;;;5069429;27;45647;-69
2022/03/03 14:00:17;;;;;;;;;32.25;30.00;;;;;;;;5055309;28;46665;-69
2022/03/03 14:02:49;;;;;;;;;35.75;31.00;;;;;;;;5067891;28;45897;-67
2022/03/03 14:05:15;;;;;;;;;32.25;29.75;;;;;;;;5069947;28;45444;-68
2022/03/03 14:07:48;;;;;;;;;29.50;26.50;;;;;;;;5067824;27;45493;-66
2022/03/03 14:10:13;;;;;;;;;23.00;23.00;;;;;;;;5068918;27;46052;-68
2022/03/03 14:12:38;;;;;;;;;23.75;21.50;;;;;;;;5069071;27;45420;-69
2022/03/03 14:15:04;;;;;;;;;28.00;25.50;;;;;;;;5068181;27;45441;-67